createdAt,value
2023-04-20T00:00:48.300Z,99216.59
2023-04-20T00:03:18.456Z,99215.81
2023-04-20T00:05:49.401Z,99213.25
2023-04-20T00:08:17.524Z,99214.22
2023-04-20T00:10:45.769Z,99210.69
2023-04-20T00:13:13.851Z,99210.84
2023-04-20T00:15:41.894Z,99206.34
2023-04-20T00:18:11.629Z,99199.41
2023-04-20T00:20:39.678Z,99193.53
2023-04-20T00:23:08.549Z,99186.94
2023-04-20T00:25:36.393Z,99180.75
2023-04-20T00:28:05.116Z,99182.38
2023-04-20T00:30:33.010Z,99180.63
2023-04-20T00:33:01.339Z,99177.75
2023-04-20T00:35:32.099Z,99174.38
2023-04-20T00:38:00.331Z,99166.41
2023-04-20T00:40:28.841Z,99166.41
2023-04-20T00:42:56.741Z,99164.91
2023-04-20T00:45:24.992Z,99161.28
2023-04-20T00:47:53.141Z,99155.28
2023-04-20T00:50:21.060Z,99155.25
2023-04-20T00:52:50.719Z,99140.69
2023-04-20T00:55:18.708Z,99145.97
2023-04-20T00:57:46.349Z,99142.72
2023-04-20T01:00:14.956Z,99152.00
2023-04-20T01:02:42.770Z,99133.03
2023-04-20T01:05:11.460Z,99141.84
2023-04-20T01:07:39.166Z,99133.88
2023-04-20T01:10:09.711Z,99134.72
2023-04-20T01:12:37.767Z,99129.75
2023-04-20T01:15:06.765Z,99121.03
2023-04-20T01:17:34.812Z,99123.63
2023-04-20T01:20:02.573Z,99122.75
2023-04-20T01:22:31.704Z,99126.00
2023-04-20T01:25:00.153Z,99124.25
2023-04-20T01:27:27.758Z,99105.47
2023-04-20T01:29:55.855Z,99097.03
2023-04-20T01:32:23.419Z,99117.56
2023-04-20T01:34:51.422Z,99119.56
2023-04-20T01:37:19.205Z,99113.31
2023-04-20T01:39:48.357Z,99096.81
2023-04-20T01:42:16.144Z,99109.19
2023-04-20T01:44:43.971Z,99105.34
2023-04-20T01:47:11.593Z,99103.91
2023-04-20T01:49:39.120Z,99105.00
2023-04-20T01:52:07.073Z,99085.75
2023-04-20T01:54:34.928Z,99087.47
2023-04-20T01:57:04.002Z,99081.53
2023-04-20T01:59:31.679Z,99079.41
2023-04-20T02:01:59.545Z,99085.03
2023-04-20T02:04:27.365Z,99078.13
2023-04-20T02:06:55.349Z,99068.84
2023-04-20T02:09:22.956Z,99082.59
2023-04-20T02:11:52.687Z,99082.38
2023-04-20T02:14:21.916Z,99088.53
2023-04-20T02:16:50.068Z,99068.06
2023-04-20T02:19:19.646Z,99075.69
2023-04-20T02:21:47.479Z,99063.84
2023-04-20T02:24:15.082Z,99070.50
2023-04-20T02:26:42.652Z,99070.59
2023-04-20T02:29:10.397Z,99066.16
2023-04-20T02:31:39.341Z,99067.22
2023-04-20T02:34:09.310Z,99068.34
2023-04-20T02:36:36.913Z,99066.53
2023-04-20T02:39:04.528Z,99055.22
2023-04-20T02:41:32.085Z,99057.72
2023-04-20T02:43:59.666Z,99050.75
2023-04-20T02:46:27.315Z,99046.75
2023-04-20T02:48:56.524Z,99053.75
2023-04-20T02:51:24.118Z,99054.66
2023-04-20T02:53:51.781Z,99046.00
2023-04-20T02:56:19.340Z,99043.28
2023-04-20T02:58:48.487Z,99031.03
2023-04-20T03:01:16.514Z,99039.91
2023-04-20T03:03:44.213Z,99033.63
2023-04-20T03:06:13.209Z,99033.84
2023-04-20T03:08:40.807Z,99031.09
2023-04-20T03:11:08.439Z,99025.28
2023-04-20T03:13:36.177Z,99033.53
2023-04-20T03:16:04.911Z,99031.00
2023-04-20T03:18:32.692Z,99032.91
2023-04-20T03:21:00.316Z,99028.69
2023-04-20T03:23:29.257Z,99031.34
2023-04-20T03:25:57.178Z,99036.72
2023-04-20T03:28:25.069Z,99036.66
2023-04-20T03:30:52.640Z,99035.84
2023-04-20T03:33:20.276Z,99033.19
2023-04-20T03:35:47.975Z,99029.63
2023-04-20T03:38:15.556Z,99021.06
2023-04-20T03:40:44.467Z,99024.72
2023-04-20T03:43:12.177Z,99032.50
2023-04-20T03:45:39.873Z,99031.56
2023-04-20T03:48:07.468Z,99023.94
2023-04-20T03:50:35.107Z,99030.69
2023-04-20T03:53:02.662Z,99028.97
2023-04-20T03:55:30.209Z,99022.44
2023-04-20T03:57:59.125Z,99019.25
2023-04-20T04:00:26.717Z,99020.19
2023-04-20T04:02:54.466Z,99020.97
2023-04-20T04:05:22.266Z,99015.78
2023-04-20T04:07:49.903Z,99018.22
2023-04-20T04:10:18.894Z,99009.03
2023-04-20T04:12:46.682Z,99020.31
2023-04-20T04:15:15.756Z,99021.56
2023-04-20T04:17:43.432Z,99010.66
2023-04-20T04:20:12.350Z,99012.25
2023-04-20T04:22:40.045Z,99010.59
2023-04-20T04:25:08.584Z,99009.00
2023-04-20T04:27:37.656Z,99011.59
2023-04-20T04:30:05.930Z,99014.25
2023-04-20T04:32:36.011Z,99011.59
2023-04-20T04:35:04.038Z,99008.84
2023-04-20T04:37:31.639Z,99007.00
2023-04-20T04:39:59.233Z,98998.53
2023-04-20T04:42:27.652Z,99007.78
2023-04-20T04:44:56.176Z,99010.41
2023-04-20T04:47:23.961Z,99013.06
2023-04-20T04:49:53.023Z,99009.31
2023-04-20T04:52:20.915Z,99011.38
2023-04-20T04:54:49.405Z,99010.41
2023-04-20T04:57:17.145Z,99009.53
2023-04-20T04:59:44.779Z,99013.78
2023-04-20T05:02:12.467Z,99006.63
2023-04-20T05:04:40.312Z,99005.94
2023-04-20T05:07:10.366Z,99007.63
2023-04-20T05:09:38.130Z,99004.22
2023-04-20T05:12:05.996Z,99011.09
2023-04-20T05:14:34.211Z,98995.19
2023-04-20T05:17:02.283Z,99004.75
2023-04-20T05:19:30.043Z,99009.34
2023-04-20T05:21:57.669Z,99005.72
2023-04-20T05:24:26.720Z,99004.66
2023-04-20T05:26:54.364Z,99005.66
2023-04-20T05:29:21.966Z,98995.09
2023-04-20T05:31:49.623Z,99005.44
2023-04-20T05:34:17.516Z,99004.47
2023-04-20T05:36:45.934Z,98994.84
2023-04-20T05:39:13.547Z,99006.16
2023-04-20T05:41:42.629Z,99003.53
2023-04-20T05:44:10.375Z,99002.44
2023-04-20T05:46:37.967Z,99002.47
2023-04-20T05:49:06.402Z,98998.81
2023-04-20T05:51:34.072Z,99001.59
2023-04-20T05:54:01.781Z,99003.88
2023-04-20T05:56:29.391Z,99010.09
2023-04-20T05:58:58.682Z,99003.97
2023-04-20T06:01:26.523Z,99006.41
2023-04-20T06:03:54.587Z,99015.31
2023-04-20T06:06:22.414Z,99011.63
2023-04-20T06:08:50.941Z,99003.00
2023-04-20T06:11:18.909Z,99008.88
2023-04-20T06:13:47.363Z,98999.72
2023-04-20T06:16:17.524Z,99003.25
2023-04-20T06:18:45.550Z,99001.19
2023-04-20T06:21:14.560Z,99000.88
2023-04-20T06:23:42.477Z,99004.88
2023-04-20T06:26:10.376Z,99012.66
2023-04-20T06:28:39.469Z,99007.34
2023-04-20T06:31:07.846Z,99004.78
2023-04-20T06:33:36.828Z,99007.19
2023-04-20T06:36:07.861Z,99014.03
2023-04-20T06:38:35.943Z,98998.28
2023-04-20T06:41:05.032Z,99001.16
2023-04-20T06:43:32.761Z,99004.50
2023-04-20T06:46:00.491Z,99001.94
2023-04-20T06:48:32.079Z,99006.09
2023-04-20T06:51:02.122Z,98996.38
2023-04-20T06:53:29.767Z,99004.91
2023-04-20T06:55:57.906Z,99004.59
2023-04-20T06:58:25.555Z,98996.38
2023-04-20T07:00:53.124Z,99003.94
2023-04-20T07:03:21.006Z,98999.75
2023-04-20T07:05:49.105Z,98989.19
2023-04-20T07:08:18.190Z,99000.50
2023-04-20T07:10:45.838Z,99000.38
2023-04-20T07:13:14.124Z,98989.53
2023-04-20T07:15:43.569Z,98994.38
2023-04-20T07:18:11.290Z,98988.41
2023-04-20T07:20:39.164Z,98989.53
2023-04-20T07:23:06.803Z,99001.06
2023-04-20T07:25:36.119Z,98994.25
2023-04-20T07:28:04.257Z,98990.78
2023-04-20T07:30:32.259Z,98986.63
2023-04-20T07:32:59.872Z,98988.31
2023-04-20T07:35:27.792Z,98994.59
2023-04-20T07:37:55.397Z,98989.19
2023-04-20T07:40:23.282Z,98984.56
2023-04-20T07:42:52.182Z,98984.47
2023-04-20T07:45:20.403Z,98989.63
2023-04-20T07:47:51.328Z,99001.84
2023-04-20T07:50:19.156Z,99009.69
2023-04-20T07:52:46.953Z,99013.41
2023-04-20T07:55:15.813Z,99011.94
2023-04-20T07:57:43.411Z,99005.50
2023-04-20T08:00:14.106Z,99010.56
2023-04-20T08:02:41.902Z,99015.44
2023-04-20T08:05:11.034Z,99011.44
2023-04-20T08:07:39.096Z,99008.53
2023-04-20T08:10:07.887Z,99003.47
2023-04-20T08:12:35.615Z,99000.50
2023-04-20T08:15:06.262Z,99000.00
2023-04-20T08:17:35.319Z,99010.00
2023-04-20T08:20:05.771Z,99001.00
2023-04-20T08:22:33.867Z,98999.84
2023-04-20T08:25:01.863Z,99000.81
2023-04-20T08:27:30.656Z,98997.69
2023-04-20T08:29:58.595Z,98998.09
2023-04-20T08:32:27.020Z,98995.13
2023-04-20T08:34:56.188Z,98994.78
2023-04-20T08:37:23.996Z,98998.34
2023-04-20T08:39:51.670Z,98992.34
2023-04-20T08:42:19.431Z,98989.06
2023-04-20T08:44:47.018Z,98990.81
2023-04-20T08:47:15.601Z,98982.50
2023-04-20T08:49:45.467Z,98986.16
2023-04-20T08:52:14.437Z,98983.28
2023-04-20T08:54:55.213Z,98986.34
2023-04-20T08:57:24.011Z,98987.91
2023-04-20T08:59:51.868Z,98983.78
2023-04-20T09:02:19.661Z,98985.25
2023-04-20T09:04:49.133Z,98985.34
2023-04-20T09:07:22.291Z,98973.25
2023-04-20T09:09:56.478Z,98980.16
2023-04-20T09:12:24.664Z,98969.22
2023-04-20T09:14:53.184Z,98977.53
2023-04-20T09:17:32.502Z,98971.84
2023-04-20T09:20:00.201Z,98966.81
2023-04-20T09:22:35.776Z,98970.41
2023-04-20T09:25:13.806Z,98966.63
2023-04-20T09:27:41.395Z,98961.09
2023-04-20T09:30:10.220Z,98966.34
2023-04-20T09:32:37.907Z,98957.63
2023-04-20T09:35:08.032Z,98967.94
2023-04-20T09:37:36.998Z,98958.22
2023-04-20T09:40:06.563Z,98962.50
2023-04-20T09:42:35.822Z,98957.63
2023-04-20T09:45:04.385Z,98960.06
2023-04-20T09:47:32.154Z,98961.03
2023-04-20T09:50:10.278Z,98954.56
2023-04-20T09:52:50.032Z,98945.16
2023-04-20T09:55:17.669Z,98951.31
2023-04-20T09:57:46.231Z,98945.97
2023-04-20T10:00:15.335Z,98937.13
2023-04-20T10:02:47.593Z,98937.94
2023-04-20T10:05:15.965Z,98934.47
2023-04-20T10:07:43.958Z,98925.78
2023-04-20T10:10:14.300Z,98930.19
2023-04-20T10:12:48.886Z,98921.28
2023-04-20T10:15:16.610Z,98940.94
2023-04-20T10:17:44.844Z,98923.91
2023-04-20T10:20:26.468Z,98916.50
2023-04-20T10:22:54.863Z,98913.81
2023-04-20T10:25:26.784Z,98921.19
2023-04-20T10:27:56.867Z,98905.16
2023-04-20T10:30:25.480Z,98909.91
2023-04-20T10:33:06.812Z,98907.91
2023-04-20T10:35:46.137Z,98898.97
2023-04-20T10:38:13.845Z,98896.75
2023-04-20T10:40:43.033Z,98888.72
2023-04-20T10:43:21.170Z,98893.41
2023-04-20T10:45:49.169Z,98889.19
2023-04-20T10:48:18.311Z,98879.16
2023-04-20T10:50:46.236Z,98880.38
2023-04-20T10:53:21.471Z,98878.94
2023-04-20T10:55:59.219Z,98863.72
2023-04-20T10:58:26.988Z,98872.56
2023-04-20T11:01:02.117Z,98875.53
2023-04-20T11:03:30.666Z,98876.47
2023-04-20T11:06:01.335Z,98858.72
2023-04-20T11:08:39.725Z,98854.38
2023-04-20T11:11:18.828Z,98855.69
2023-04-20T11:13:46.476Z,98852.41
2023-04-20T11:16:14.418Z,98835.53
2023-04-20T11:18:52.867Z,98832.44
2023-04-20T11:21:20.633Z,98828.50
2023-04-20T11:23:48.697Z,98817.06
2023-04-20T11:26:18.011Z,98819.53
2023-04-20T11:28:54.495Z,98820.31
2023-04-20T11:31:23.467Z,98820.38
2023-04-20T11:33:51.377Z,98811.00
2023-04-20T11:36:22.817Z,98809.97
2023-04-20T11:38:50.897Z,98796.63
2023-04-20T11:41:19.884Z,98804.63
2023-04-20T11:43:49.169Z,98800.59
2023-04-20T11:46:18.005Z,98797.47
2023-04-20T11:48:45.935Z,98787.31
2023-04-20T11:51:13.581Z,98779.75
2023-04-20T11:53:41.599Z,98778.31
2023-04-20T11:56:09.705Z,98768.34
2023-04-20T11:58:38.810Z,98770.53
2023-04-20T12:01:06.786Z,98768.81
2023-04-20T12:03:34.635Z,98768.75
2023-04-20T12:06:02.642Z,98773.38
2023-04-20T12:08:30.299Z,98775.59
2023-04-20T12:10:58.768Z,98774.22
2023-04-20T12:13:26.591Z,98779.59
2023-04-20T12:15:55.615Z,98787.56
2023-04-20T12:18:23.386Z,98777.81
2023-04-20T12:20:51.590Z,98772.63
2023-04-20T12:23:19.197Z,98774.31
2023-04-20T12:25:46.991Z,98778.31
2023-04-20T12:28:15.306Z,98769.81
2023-04-20T12:30:43.011Z,98769.28
2023-04-20T12:33:12.080Z,98763.31
2023-04-20T12:35:39.806Z,98764.47
2023-04-20T12:38:07.397Z,98767.25
2023-04-20T12:40:36.087Z,98778.97
2023-04-20T12:43:04.063Z,98765.63
2023-04-20T12:45:31.781Z,98754.50
2023-04-20T12:48:00.607Z,98755.38
2023-04-20T12:50:29.736Z,98752.56
2023-04-20T12:52:58.450Z,98751.47
2023-04-20T12:55:26.916Z,98753.56
2023-04-20T12:57:54.473Z,98750.03
2023-04-20T13:00:22.232Z,98755.25
2023-04-20T13:02:50.679Z,98751.44
2023-04-20T13:05:18.678Z,98743.53
2023-04-20T13:07:47.599Z,98748.50
2023-04-20T13:10:15.251Z,98761.28
2023-04-20T13:12:42.847Z,98759.34
2023-04-20T13:15:11.043Z,98751.03
2023-04-20T13:17:38.688Z,98753.06
2023-04-20T13:20:07.781Z,98754.09
2023-04-20T13:22:37.239Z,98745.09
2023-04-20T13:25:13.016Z,98750.75
2023-04-20T13:27:40.577Z,98745.31
2023-04-20T13:30:09.803Z,98743.69
2023-04-20T13:32:38.838Z,98735.34
2023-04-20T13:35:07.910Z,98737.22
2023-04-20T13:37:36.720Z,98737.84
2023-04-20T13:40:07.772Z,98742.97
2023-04-20T13:42:36.896Z,98736.78
2023-04-20T13:45:05.024Z,98746.25
2023-04-20T13:47:32.842Z,98739.75
2023-04-20T13:50:03.913Z,98744.81
2023-04-20T13:52:31.744Z,98744.19
2023-04-20T13:54:59.543Z,98741.94
2023-04-20T13:57:27.140Z,98740.16
2023-04-20T13:59:56.236Z,98741.91
2023-04-20T14:02:24.862Z,98750.97
2023-04-20T14:04:52.575Z,98762.69
2023-04-20T14:07:20.332Z,98770.94
2023-04-20T14:09:47.956Z,98757.00
2023-04-20T14:12:15.920Z,98762.91
2023-04-20T14:14:43.586Z,98764.50
2023-04-20T14:17:12.593Z,98785.25
2023-04-20T14:19:40.310Z,98778.69
2023-04-20T14:22:07.910Z,98787.31
2023-04-20T14:24:35.639Z,98783.16
2023-04-20T14:27:03.319Z,98782.38
2023-04-20T14:29:31.034Z,98778.50
2023-04-20T14:31:58.612Z,98773.81
2023-04-20T14:34:27.691Z,98772.84
2023-04-20T14:36:55.623Z,98777.03
2023-04-20T14:39:23.445Z,98769.41
2023-04-20T14:41:51.102Z,98762.88
2023-04-20T14:44:19.066Z,98761.84
2023-04-20T14:46:47.132Z,98775.22
2023-04-20T14:49:14.843Z,98771.09
2023-04-20T14:51:43.817Z,98776.34
2023-04-20T14:54:11.537Z,98763.69
2023-04-20T14:56:39.200Z,98781.44
2023-04-20T14:59:07.015Z,98779.41
2023-04-20T15:01:34.929Z,98782.97
2023-04-20T15:04:02.783Z,98774.84
2023-04-20T15:06:30.796Z,98778.41
2023-04-20T15:08:59.841Z,98776.91
2023-04-20T15:11:27.447Z,98777.19
2023-04-20T15:13:55.090Z,98773.44
2023-04-20T15:16:22.837Z,98769.53
2023-04-20T15:18:52.174Z,98774.41
2023-04-20T15:21:20.792Z,98766.31
2023-04-20T15:23:48.458Z,98760.69
2023-04-20T15:26:17.385Z,98762.03
2023-04-20T15:28:45.142Z,98760.91
2023-04-20T15:31:12.861Z,98762.97
2023-04-20T15:33:42.085Z,98766.19
2023-04-20T15:36:11.873Z,98778.69
2023-04-20T15:38:39.497Z,98781.81
2023-04-20T15:41:07.236Z,98778.13
2023-04-20T15:43:36.293Z,98778.84
2023-04-20T15:46:04.255Z,98781.47
2023-04-20T15:48:32.055Z,98784.94
2023-04-20T15:50:59.671Z,98779.09
2023-04-20T15:53:27.370Z,98796.47
2023-04-20T15:55:55.142Z,98800.63
2023-04-20T15:58:22.774Z,98787.09
2023-04-20T16:00:51.821Z,98782.09
2023-04-20T16:03:19.633Z,98794.25
2023-04-20T16:05:47.320Z,98790.06
2023-04-20T16:08:14.885Z,98788.47
2023-04-20T16:10:42.463Z,98791.31
2023-04-20T16:13:10.017Z,98786.84
2023-04-20T16:15:38.540Z,98774.47
2023-04-20T16:18:07.586Z,98783.41
2023-04-20T16:20:35.271Z,98775.25
2023-04-20T16:23:02.805Z,98770.47
2023-04-20T16:25:32.329Z,98778.81
2023-04-20T16:27:59.949Z,98780.38
2023-04-20T16:30:27.513Z,98774.00
2023-04-20T16:32:55.350Z,98773.28
2023-04-20T16:35:24.478Z,98779.34
2023-04-20T16:37:52.050Z,98771.31
2023-04-20T16:40:20.867Z,98785.25
2023-04-20T16:42:48.509Z,98783.81
2023-04-20T16:45:16.193Z,98776.19
2023-04-20T16:47:43.753Z,98777.56
2023-04-20T16:50:14.194Z,98767.06
2023-04-20T16:52:43.174Z,98766.53
2023-04-20T16:55:11.114Z,98758.19
2023-04-20T16:57:38.809Z,98758.50
2023-04-20T17:00:08.547Z,98756.34
2023-04-20T17:02:37.483Z,98760.81
2023-04-20T17:05:05.859Z,98744.81
2023-04-20T17:07:33.914Z,98750.28
2023-04-20T17:10:03.029Z,98759.59
2023-04-20T17:12:30.671Z,98759.06
2023-04-20T17:14:58.275Z,98755.69
2023-04-20T17:17:26.084Z,98761.38
2023-04-20T17:19:53.781Z,98757.97
2023-04-20T17:22:21.395Z,98748.56
2023-04-20T17:24:49.132Z,98751.84
2023-04-20T17:27:18.118Z,98746.00
2023-04-20T17:29:46.014Z,98747.84
2023-04-20T17:32:14.089Z,98751.31
2023-04-20T17:34:44.743Z,98763.34
2023-04-20T17:37:12.931Z,98762.13
2023-04-20T17:39:40.585Z,98762.75
2023-04-20T17:42:08.278Z,98756.63
2023-04-20T17:44:38.203Z,98764.91
2023-04-20T17:47:06.391Z,98760.63
2023-04-20T17:49:34.929Z,98773.22
2023-04-20T17:52:02.686Z,98781.16
2023-04-20T17:54:30.384Z,98783.78
2023-04-20T17:56:58.014Z,98793.13
2023-04-20T17:59:25.656Z,98794.97
2023-04-20T18:01:54.836Z,98795.41
2023-04-20T18:04:22.626Z,98796.78
2023-04-20T18:06:51.391Z,98792.06
2023-04-20T18:09:19.070Z,98794.00
2023-04-20T18:11:46.750Z,98797.66
2023-04-20T18:14:14.410Z,98801.28
2023-04-20T18:16:41.973Z,98796.78
2023-04-20T18:19:10.978Z,98807.41
2023-04-20T18:21:38.711Z,98806.75
2023-04-20T18:24:07.396Z,98809.97
2023-04-20T18:26:34.994Z,98814.28
2023-04-20T18:29:02.624Z,98809.22
2023-04-20T18:31:31.040Z,98799.41
2023-04-20T18:33:58.763Z,98803.78
2023-04-20T18:36:28.342Z,98814.28
2023-04-20T18:38:57.295Z,98814.28
2023-04-20T18:41:25.753Z,98811.66
2023-04-20T18:43:54.333Z,98801.63
2023-04-20T18:46:22.090Z,98810.53
2023-04-20T18:48:49.767Z,98807.59
2023-04-20T18:51:17.590Z,98811.81
2023-04-20T18:53:46.646Z,98828.28
2023-04-20T18:56:14.436Z,98804.69
2023-04-20T18:58:42.614Z,98827.38
2023-04-20T19:01:12.284Z,98819.94
2023-04-20T19:03:40.034Z,98827.69
2023-04-20T19:06:07.965Z,98832.50
2023-04-20T19:08:35.548Z,98827.47
2023-04-20T19:11:04.527Z,98841.75
2023-04-20T19:13:32.129Z,98842.56
2023-04-20T19:15:59.828Z,98849.81
2023-04-20T19:18:27.533Z,98852.53
2023-04-20T19:20:55.487Z,98853.63
2023-04-20T19:23:23.117Z,98843.63
2023-04-20T19:25:50.674Z,98849.00
2023-04-20T19:28:19.597Z,98852.47
2023-04-20T19:30:47.337Z,98855.66
2023-04-20T19:33:15.102Z,98859.78
2023-04-20T19:35:43.495Z,98862.66
2023-04-20T19:38:11.106Z,98869.44
2023-04-20T19:40:38.763Z,98864.50
2023-04-20T19:43:06.385Z,98867.94
2023-04-20T19:45:35.447Z,98868.69
2023-04-20T19:48:03.238Z,98863.59
2023-04-20T19:50:30.885Z,98856.75
2023-04-20T19:52:58.616Z,98847.19
2023-04-20T19:55:26.371Z,98840.00
2023-04-20T19:57:53.982Z,98843.47
2023-04-20T20:00:21.669Z,98841.34
2023-04-20T20:02:50.896Z,98846.63
2023-04-20T20:05:18.841Z,98832.63
2023-04-20T20:07:46.599Z,98833.53
2023-04-20T20:10:14.299Z,98818.94
2023-04-20T20:12:41.885Z,98839.78
2023-04-20T20:15:09.855Z,98832.13
2023-04-20T20:17:37.596Z,98822.78
2023-04-20T20:20:08.922Z,98834.50
2023-04-20T20:22:36.544Z,98837.47
2023-04-20T20:25:04.569Z,98835.16
2023-04-20T20:27:32.149Z,98825.78
2023-04-20T20:29:59.817Z,98831.97
2023-04-20T20:32:27.457Z,98818.47
2023-04-20T20:34:55.172Z,98833.97
2023-04-20T20:37:24.274Z,98843.75
2023-04-20T20:39:53.152Z,98841.13
2023-04-20T20:42:21.363Z,98841.81
2023-04-20T20:44:49.047Z,98842.94
2023-04-20T20:47:16.665Z,98839.22
2023-04-20T20:49:44.317Z,98846.50
2023-04-20T20:52:11.944Z,98822.28
2023-04-20T20:54:40.911Z,98827.97
2023-04-20T20:57:08.579Z,98835.59
2023-04-20T20:59:36.242Z,98828.19
2023-04-20T21:02:04.305Z,98829.59
2023-04-20T21:04:32.034Z,98829.22
2023-04-20T21:06:59.658Z,98819.47
2023-04-20T21:09:27.578Z,98813.50
2023-04-20T21:11:57.596Z,98820.63
2023-04-20T21:14:25.338Z,98819.00
2023-04-20T21:16:53.156Z,98816.97
2023-04-20T21:19:21.179Z,98813.44
2023-04-20T21:21:48.937Z,98811.78
2023-04-20T21:24:16.873Z,98826.81
2023-04-20T21:26:44.440Z,98829.38
2023-04-20T21:29:13.507Z,98832.00
2023-04-20T21:31:41.431Z,98825.75
2023-04-20T21:34:09.116Z,98829.81
2023-04-20T21:36:36.799Z,98832.16
2023-04-20T21:39:04.890Z,98812.44
2023-04-20T21:41:32.570Z,98815.59
2023-04-20T21:44:00.519Z,98816.38
2023-04-20T21:46:30.179Z,98809.38
2023-04-20T21:48:57.815Z,98814.69
2023-04-20T21:51:26.388Z,98811.22
2023-04-20T21:53:54.033Z,98814.59
2023-04-20T21:56:21.784Z,98812.66
2023-04-20T21:58:49.448Z,98810.78
2023-04-20T22:01:18.062Z,98810.28
2023-04-20T22:03:47.470Z,98801.84
2023-04-20T22:06:15.408Z,98801.84
2023-04-20T22:08:43.254Z,98800.41
2023-04-20T22:11:11.277Z,98805.84
2023-04-20T22:13:39.019Z,98800.66
2023-04-20T22:16:07.426Z,98797.34
2023-04-20T22:18:35.161Z,98803.28
2023-04-20T22:21:04.737Z,98791.03
2023-04-20T22:23:32.398Z,98798.91
2023-04-20T22:26:00.515Z,98797.91
2023-04-20T22:28:28.269Z,98796.22
2023-04-20T22:30:56.056Z,98795.72
2023-04-20T22:33:23.680Z,98801.66
2023-04-20T22:35:52.569Z,98801.56
2023-04-20T22:38:21.623Z,98800.81
2023-04-20T22:40:49.198Z,98789.69
2023-04-20T22:43:16.874Z,98792.09
2023-04-20T22:45:44.564Z,98788.78
2023-04-20T22:48:12.294Z,98791.75
2023-04-20T22:50:39.966Z,98794.81
2023-04-20T22:53:07.583Z,98786.91
2023-04-20T22:55:36.712Z,98793.00
2023-04-20T22:58:04.405Z,98784.28
2023-04-20T23:00:32.364Z,98779.97
2023-04-20T23:03:01.187Z,98789.47
2023-04-20T23:05:35.447Z,98790.25
2023-04-20T23:08:03.431Z,98782.69
2023-04-20T23:10:30.981Z,98787.13
2023-04-20T23:13:00.286Z,98789.84
2023-04-20T23:15:28.451Z,98783.59
2023-04-20T23:17:57.411Z,98784.28
2023-04-20T23:20:25.834Z,98777.47
2023-04-20T23:22:53.578Z,98778.38
2023-04-20T23:25:21.145Z,98780.31
2023-04-20T23:27:49.259Z,98782.09
2023-04-20T23:30:18.469Z,98778.25
2023-04-20T23:32:46.408Z,98783.34
2023-04-20T23:35:14.339Z,98779.06
2023-04-20T23:37:42.026Z,98779.81
2023-04-20T23:40:10.847Z,98778.09
2023-04-20T23:42:38.463Z,98779.56
2023-04-20T23:45:06.833Z,98788.59
2023-04-20T23:47:35.832Z,98781.00
2023-04-20T23:50:03.483Z,98784.81
2023-04-20T23:52:31.136Z,98782.19
2023-04-20T23:54:58.760Z,98784.03
2023-04-20T23:57:26.349Z,98779.22
2023-04-20T23:59:54.388Z,98790.53
